createdAt,value
2023-03-06T00:00:23.251Z,9.800
2023-03-06T00:01:22.881Z,10
2023-03-06T00:02:22.669Z,9.899
2023-03-06T00:03:22.304Z,9.199
2023-03-06T00:04:22.236Z,9.600
2023-03-06T00:05:22.599Z,9.5
2023-03-06T00:06:22.685Z,9.600
2023-03-06T00:08:22.251Z,9.300
2023-03-06T00:09:22.435Z,9.5
2023-03-06T00:11:22.341Z,10
2023-03-06T00:12:22.052Z,9.399
2023-03-06T00:13:22.204Z,9.300
2023-03-06T00:14:22.014Z,9.199
2023-03-06T00:15:22.352Z,9.300
2023-03-06T00:16:22.235Z,9.699
2023-03-06T00:17:22.275Z,9
2023-03-06T00:18:22.161Z,9.100
2023-03-06T00:19:22.196Z,9.600
2023-03-06T00:20:22.385Z,9.399
2023-03-06T00:21:21.987Z,9.300
2023-03-06T00:22:22.795Z,9.600
2023-03-06T00:23:21.798Z,8.899
2023-03-06T00:24:22.375Z,9.399
2023-03-06T00:25:22.215Z,9.100
2023-03-06T00:26:21.991Z,8.899
2023-03-06T00:27:21.689Z,8.800
2023-03-06T00:28:22.943Z,8.899
2023-03-06T00:29:22.229Z,9
2023-03-06T00:32:22.129Z,8.699
2023-03-06T00:33:21.589Z,9.600
2023-03-06T00:34:22.253Z,8.899
2023-03-06T00:35:22.982Z,8.699
2023-03-06T00:36:21.895Z,8.300
2023-03-06T00:37:21.566Z,8.800
2023-03-06T00:38:22.292Z,8.899
2023-03-06T00:40:23.378Z,8.199
2023-03-06T00:41:22.562Z,8.899
2023-03-06T00:42:21.916Z,8.800
2023-03-06T00:43:22.049Z,9.5
2023-03-06T00:44:22.017Z,8.899
2023-03-06T00:45:22.013Z,9.600
2023-03-06T00:46:21.944Z,9.199
2023-03-06T00:47:21.797Z,9.699
2023-03-06T00:48:22.012Z,10.30
2023-03-06T00:49:21.768Z,8.800
2023-03-06T00:50:22.159Z,9.399
2023-03-06T00:51:22.557Z,8.300
2023-03-06T00:52:22.116Z,8
2023-03-06T00:53:22.581Z,8.800
2023-03-06T00:54:22.200Z,9.300
2023-03-06T00:55:22.052Z,9.100
2023-03-06T00:56:41.767Z,9.300
2023-03-06T00:57:21.487Z,9.5
2023-03-06T00:58:22.316Z,9.600
2023-03-06T00:59:22.490Z,9.399
2023-03-06T01:00:23.855Z,9.199
2023-03-06T01:01:25.427Z,9.100
2023-03-06T01:02:22.339Z,8.899
2023-03-06T01:03:22.122Z,9
2023-03-06T01:04:22.524Z,8.800
2023-03-06T01:05:22.623Z,9.5
2023-03-06T01:06:21.924Z,8.600
2023-03-06T01:07:22.073Z,8.899
2023-03-06T01:08:22.488Z,8.5
2023-03-06T01:09:22.516Z,8.300
2023-03-06T01:10:22.527Z,8.399
2023-03-06T01:11:22.668Z,8.199
2023-03-06T01:13:22.370Z,8.800
2023-03-06T01:14:22.154Z,8.399
2023-03-06T01:15:22.690Z,8.199
2023-03-06T01:16:21.801Z,7.900
2023-03-06T01:17:21.843Z,8.399
2023-03-06T01:18:22.082Z,8.800
2023-03-06T01:19:21.895Z,8
2023-03-06T01:20:21.972Z,8.199
2023-03-06T01:22:22.046Z,8
2023-03-06T01:23:22.388Z,8.5
2023-03-06T01:24:21.792Z,7.800
2023-03-06T01:25:22.170Z,8.100
2023-03-06T01:26:21.978Z,8.300
2023-03-06T01:27:21.602Z,7.800
2023-03-06T01:29:21.487Z,7.699
2023-03-06T01:31:21.166Z,8.100
2023-03-06T01:32:22.288Z,7.800
2023-03-06T01:33:21.486Z,8.600
2023-03-06T01:34:22.620Z,7.699
2023-03-06T01:35:22.232Z,8.600
2023-03-06T01:36:22.057Z,8.100
2023-03-06T01:37:21.148Z,8.399
2023-03-06T01:38:22.101Z,8.199
2023-03-06T01:39:21.253Z,8.100
2023-03-06T01:40:22.247Z,8.699
2023-03-06T01:41:22.030Z,7.900
2023-03-06T01:42:22.177Z,8.399
2023-03-06T01:43:21.370Z,8.300
2023-03-06T01:44:22.088Z,8.899
2023-03-06T01:45:22.422Z,8.399
2023-03-06T01:46:21.931Z,8.199
2023-03-06T01:47:21.208Z,8.699
2023-03-06T01:48:22.114Z,9.100
2023-03-06T01:49:21.787Z,8.600
2023-03-06T01:51:21.696Z,8
2023-03-06T01:52:21.803Z,8.5
2023-03-06T01:53:21.705Z,8.600
2023-03-06T01:54:22.065Z,8.5
2023-03-06T01:55:21.908Z,9.300
2023-03-06T01:56:21.813Z,8.5
2023-03-06T01:57:21.478Z,9
2023-03-06T01:58:22.432Z,8.899
2023-03-06T01:59:22.255Z,8.800
2023-03-06T02:00:24.456Z,8.5
2023-03-06T02:01:22.315Z,8.699
2023-03-06T02:02:23.047Z,9.600
2023-03-06T02:03:22.878Z,8.699
2023-03-06T02:06:22.499Z,9.300
2023-03-06T02:07:22.328Z,8.5
2023-03-06T02:08:22.358Z,8.899
2023-03-06T02:09:22.835Z,8.699
2023-03-06T02:10:22.897Z,8.899
2023-03-06T02:11:21.935Z,8.600
2023-03-06T02:12:22.659Z,9
2023-03-06T02:13:21.887Z,8.600
2023-03-06T02:14:21.983Z,9.300
2023-03-06T02:15:22.884Z,9
2023-03-06T02:16:23.089Z,8.699
2023-03-06T02:17:22.527Z,8.5
2023-03-06T02:18:22.319Z,8.800
2023-03-06T02:19:22.285Z,9
2023-03-06T02:20:22.907Z,9.5
2023-03-06T02:21:21.969Z,9.399
2023-03-06T02:22:22.324Z,9.300
2023-03-06T02:24:21.967Z,9.399
2023-03-06T02:26:22.473Z,9.5
2023-03-06T02:27:21.991Z,10.10
2023-03-06T02:28:21.799Z,8.899
2023-03-06T02:29:21.653Z,9.600
2023-03-06T02:30:22.056Z,10.10
2023-03-06T02:31:22.130Z,9.399
2023-03-06T02:32:22.134Z,9.5
2023-03-06T02:33:22.136Z,9.699
2023-03-06T02:34:22.364Z,9.199
2023-03-06T02:35:21.782Z,8.800
2023-03-06T02:36:22.692Z,9.399
2023-03-06T02:37:22.109Z,8.899
2023-03-06T02:38:22.138Z,9.5
2023-03-06T02:39:22.171Z,9.399
2023-03-06T02:40:22.654Z,9.5
2023-03-06T02:41:21.490Z,9.600
2023-03-06T02:42:21.656Z,9.399
2023-03-06T02:43:21.967Z,9.300
2023-03-06T02:45:22.642Z,9.5
2023-03-06T02:46:22.273Z,9.399
2023-03-06T02:47:21.758Z,9.300
2023-03-06T02:48:22.145Z,9.600
2023-03-06T02:49:21.970Z,9
2023-03-06T02:50:22.329Z,9.100
2023-03-06T02:51:21.580Z,8.899
2023-03-06T02:52:21.453Z,8.800
2023-03-06T02:53:21.793Z,9.100
2023-03-06T02:56:22.080Z,8.699
2023-03-06T02:57:22.026Z,9.100
2023-03-06T02:58:22.031Z,9
2023-03-06T02:59:23.273Z,8.899
2023-03-06T03:00:24.634Z,9
2023-03-06T03:01:22.476Z,8.699
2023-03-06T03:02:21.720Z,9
2023-03-06T03:03:36.195Z,9.199
2023-03-06T03:04:21.907Z,8.800
2023-03-06T03:05:22.786Z,8.600
2023-03-06T03:06:22.533Z,9
2023-03-06T03:07:21.624Z,9.899
2023-03-06T03:08:22.639Z,8.800
2023-03-06T03:09:21.780Z,9.199
2023-03-06T03:10:22.103Z,9
2023-03-06T03:11:22.029Z,8.5
2023-03-06T03:12:22.174Z,8.899
2023-03-06T03:13:22.125Z,8.699
2023-03-06T03:15:22.056Z,9.199
2023-03-06T03:16:22.610Z,8.899
2023-03-06T03:17:40.436Z,9.199
2023-03-06T03:18:22.511Z,9.800
2023-03-06T03:19:22.166Z,9.300
2023-03-06T03:20:23.604Z,9.199
2023-03-06T03:21:21.894Z,9.300
2023-03-06T03:22:21.951Z,9
2023-03-06T03:23:22.046Z,8.899
2023-03-06T03:24:21.440Z,9.300
2023-03-06T03:25:22.418Z,8.699
2023-03-06T03:26:21.968Z,9.399
2023-03-06T03:27:21.944Z,9.800
2023-03-06T03:28:21.884Z,9.199
2023-03-06T03:29:22.173Z,10.19
2023-03-06T03:30:22.096Z,9.699
2023-03-06T03:31:22.210Z,9.199
2023-03-06T03:32:21.587Z,10
2023-03-06T03:33:22.510Z,9.899
2023-03-06T03:34:22.334Z,9.699
2023-03-06T03:36:21.899Z,9.600
2023-03-06T03:37:21.864Z,10.19
2023-03-06T03:38:22.228Z,9.5
2023-03-06T03:39:22.232Z,9.699
2023-03-06T03:40:22.060Z,9.300
2023-03-06T03:41:22.111Z,9.699
2023-03-06T03:42:21.720Z,10.19
2023-03-06T03:44:22.087Z,9.800
2023-03-06T03:45:22.315Z,9.899
2023-03-06T03:46:22.006Z,9.399
2023-03-06T03:47:22.514Z,9.600
2023-03-06T03:48:22.155Z,9.399
2023-03-06T03:49:22.159Z,9.899
2023-03-06T03:50:21.858Z,10.30
2023-03-06T03:52:21.893Z,10.19
2023-03-06T03:53:22.086Z,10.60
2023-03-06T03:54:21.826Z,9.699
2023-03-06T03:55:22.081Z,10.19
2023-03-06T03:56:22.039Z,10.69
2023-03-06T03:57:22.523Z,10
2023-03-06T03:58:21.714Z,10.30
2023-03-06T03:59:21.747Z,10.10
2023-03-06T04:00:23.234Z,9.699
2023-03-06T04:01:22.416Z,10.19
2023-03-06T04:02:22.154Z,9.899
2023-03-06T04:03:22.333Z,10.19
2023-03-06T04:04:22.620Z,10
2023-03-06T04:07:22.040Z,9.899
2023-03-06T04:08:22.737Z,10.39
2023-03-06T04:09:22.096Z,10.10
2023-03-06T04:10:22.647Z,10.39
2023-03-06T04:11:22.473Z,10.30
2023-03-06T04:12:22.072Z,9.600
2023-03-06T04:13:22.228Z,10.10
2023-03-06T04:14:22.629Z,9.699
2023-03-06T04:15:22.536Z,10
2023-03-06T04:16:23.233Z,9.600
2023-03-06T04:17:21.044Z,10.60
2023-03-06T04:18:22.469Z,9.899
2023-03-06T04:19:21.714Z,9.5
2023-03-06T04:20:22.314Z,10.30
2023-03-06T04:21:22.095Z,9.699
2023-03-06T04:23:22.315Z,10
2023-03-06T04:24:22.312Z,9.899
2023-03-06T04:25:22.596Z,11
2023-03-06T04:26:21.890Z,10.5
2023-03-06T04:27:22.229Z,10.19
2023-03-06T04:28:22.108Z,10.30
2023-03-06T04:29:22.068Z,9.399
2023-03-06T04:30:23.055Z,10.5
2023-03-06T04:31:21.777Z,9.300
2023-03-06T04:32:22.712Z,10
2023-03-06T04:33:22.102Z,10.30
2023-03-06T04:34:22.108Z,9.800
2023-03-06T04:36:21.789Z,10.5
2023-03-06T04:38:22.305Z,10.69
2023-03-06T04:39:21.636Z,10.80
2023-03-06T04:40:22.332Z,11.5
2023-03-06T04:42:22.145Z,11.30
2023-03-06T04:43:21.898Z,11.5
2023-03-06T04:44:21.804Z,11.30
2023-03-06T04:45:22.371Z,11.69
2023-03-06T04:46:21.971Z,11.89
2023-03-06T04:47:21.968Z,10.60
2023-03-06T04:48:21.876Z,11.69
2023-03-06T04:49:21.649Z,11.39
2023-03-06T04:50:22.392Z,11.19
2023-03-06T04:51:21.440Z,10.89
2023-03-06T04:52:21.738Z,11.39
2023-03-06T04:53:21.851Z,10.89
2023-03-06T04:54:22.010Z,11.5
2023-03-06T04:55:23.323Z,11
2023-03-06T04:56:22.060Z,11.80
2023-03-06T04:57:21.580Z,11.39
2023-03-06T04:58:22.669Z,11.30
2023-03-06T04:59:21.814Z,11.60
2023-03-06T05:00:23.617Z,11.39
2023-03-06T05:01:22.466Z,12
2023-03-06T05:02:21.908Z,11.39
2023-03-06T05:03:22.064Z,11.60
2023-03-06T05:04:22.797Z,11.39
2023-03-06T05:05:21.955Z,12
2023-03-06T05:06:22.213Z,12.60
2023-03-06T05:07:21.944Z,11.19
2023-03-06T05:08:21.926Z,12.80
2023-03-06T05:09:22.148Z,12.89
2023-03-06T05:10:22.024Z,12.69
2023-03-06T05:11:21.819Z,13.10
2023-03-06T05:12:22.888Z,12.80
2023-03-06T05:13:21.917Z,12.39
2023-03-06T05:14:22.647Z,13.5
2023-03-06T05:15:23.383Z,12.80
2023-03-06T05:16:30.108Z,13.89
2023-03-06T05:17:21.709Z,13.39
2023-03-06T05:18:21.956Z,13.5
2023-03-06T05:19:21.727Z,13.39
2023-03-06T05:20:30.724Z,12.60
2023-03-06T05:21:22.206Z,13.39
2023-03-06T05:23:22.177Z,13
2023-03-06T05:24:22.715Z,13.19
2023-03-06T05:26:21.713Z,13.80
2023-03-06T05:27:22.235Z,13.30
2023-03-06T05:29:22.336Z,13.89
2023-03-06T05:30:22.640Z,12.69
2023-03-06T05:32:21.553Z,13.69
2023-03-06T05:33:21.832Z,12.89
2023-03-06T05:34:22.063Z,13.19
2023-03-06T05:35:22.273Z,13.69
2023-03-06T05:36:22.530Z,13.89
2023-03-06T05:37:21.459Z,13.80
2023-03-06T05:38:22.427Z,12.89
2023-03-06T05:39:21.590Z,13.69
2023-03-06T05:40:22.522Z,13.30
2023-03-06T05:41:22.509Z,13.89
2023-03-06T05:42:22.243Z,14
2023-03-06T05:43:21.847Z,13.30
2023-03-06T05:44:22.563Z,13.80
2023-03-06T05:45:22.676Z,14.69
2023-03-06T05:46:22.273Z,13.69
2023-03-06T05:47:22.527Z,13.39
2023-03-06T05:48:22.370Z,13.10
2023-03-06T05:49:21.728Z,12.89
2023-03-06T05:50:22.056Z,14.10
2023-03-06T05:51:22.406Z,13.5
2023-03-06T05:53:21.896Z,14.69
2023-03-06T05:54:22.381Z,14.10
2023-03-06T05:55:23.032Z,13.89
2023-03-06T05:56:22.357Z,14
2023-03-06T05:58:22.265Z,13.60
2023-03-06T05:59:21.857Z,14
2023-03-06T06:00:23.307Z,13.89
2023-03-06T06:03:24.548Z,14.5
2023-03-06T06:04:22.620Z,14.19
2023-03-06T06:05:23.095Z,13.69
2023-03-06T06:06:22.212Z,14.10
2023-03-06T06:07:22.722Z,13.80
2023-03-06T06:08:22.445Z,14.30
2023-03-06T06:09:22.114Z,14.5
2023-03-06T06:10:22.369Z,14.60
2023-03-06T06:11:22.286Z,14.30
2023-03-06T06:13:22.522Z,14.60
2023-03-06T06:14:22.766Z,14.5
2023-03-06T06:15:22.240Z,14.30
2023-03-06T06:16:21.972Z,14.10
2023-03-06T06:17:22.505Z,14.5
2023-03-06T06:18:22.787Z,14.39
2023-03-06T06:19:21.731Z,14
2023-03-06T06:20:22.201Z,14.30
2023-03-06T06:21:22.326Z,15.10
2023-03-06T06:22:23.025Z,14.80
2023-03-06T06:23:22.463Z,14.30
2023-03-06T06:24:22.209Z,14.60
2023-03-06T06:25:22.560Z,14.69
2023-03-06T06:27:21.959Z,14
2023-03-06T06:28:22.305Z,14.80
2023-03-06T06:29:22.809Z,14.30
2023-03-06T06:30:22.828Z,14.39
2023-03-06T06:31:22.642Z,14.89
2023-03-06T06:32:22.041Z,14.10
2023-03-06T06:33:22.369Z,14.30
2023-03-06T06:34:22.816Z,15.69
2023-03-06T06:35:23.082Z,14.60
2023-03-06T06:36:22.028Z,14.89
2023-03-06T06:37:21.925Z,14.80
2023-03-06T06:38:22.450Z,14.30
2023-03-06T06:39:22.041Z,15
2023-03-06T06:40:22.809Z,14.69
2023-03-06T06:43:22.310Z,14.89
2023-03-06T06:44:22.495Z,15.60
2023-03-06T06:45:22.975Z,14.5
2023-03-06T06:47:09.339Z,15
2023-03-06T06:48:22.245Z,14.39
2023-03-06T06:49:22.002Z,15.10
2023-03-06T06:50:22.494Z,15.39
2023-03-06T06:51:22.502Z,15.30
2023-03-06T06:52:22.115Z,15.60
2023-03-06T06:53:22.615Z,15.80
2023-03-06T06:54:22.391Z,15.5
2023-03-06T06:55:23.144Z,15.80
2023-03-06T06:56:22.178Z,15.69
2023-03-06T06:57:23.216Z,16.60
2023-03-06T06:58:23.334Z,15.30
2023-03-06T06:59:23.307Z,15
2023-03-06T07:00:25.164Z,15.89
2023-03-06T07:01:23.633Z,15.10
2023-03-06T07:02:22.747Z,16
2023-03-06T07:03:22.765Z,16.10
2023-03-06T07:04:22.321Z,15.39
2023-03-06T07:05:22.845Z,16.39
2023-03-06T07:06:22.044Z,15.69
2023-03-06T07:07:22.465Z,16.10
2023-03-06T07:08:22.108Z,15.5
2023-03-06T07:09:21.997Z,15.80
2023-03-06T07:10:22.806Z,15.89
2023-03-06T07:11:22.416Z,16.39
2023-03-06T07:12:22.462Z,16.20
2023-03-06T07:13:22.947Z,16.39
2023-03-06T07:14:22.545Z,16.10
2023-03-06T07:15:23.132Z,16.60
2023-03-06T07:16:22.068Z,16.10
2023-03-06T07:17:22.404Z,16.89
2023-03-06T07:18:22.402Z,17
2023-03-06T07:19:22.492Z,16.60
2023-03-06T07:20:23.014Z,16.5
2023-03-06T07:21:22.001Z,16.70
2023-03-06T07:22:22.757Z,16
2023-03-06T07:23:22.540Z,16.39
2023-03-06T07:24:22.477Z,16.10
2023-03-06T07:25:22.015Z,16.89
2023-03-06T07:26:22.250Z,16.20
2023-03-06T07:27:22.292Z,17.10
2023-03-06T07:28:22.452Z,16.79
2023-03-06T07:29:27.109Z,17.10
2023-03-06T07:30:22.625Z,17.79
2023-03-06T07:31:22.689Z,16.79
2023-03-06T07:32:22.591Z,17
2023-03-06T07:33:27.222Z,17.10
2023-03-06T07:34:22.651Z,16.89
2023-03-06T07:35:22.086Z,17.39
2023-03-06T07:36:22.492Z,17.79
2023-03-06T07:37:22.172Z,17.39
2023-03-06T07:38:22.440Z,17.79
2023-03-06T07:39:21.661Z,17.70
2023-03-06T07:40:22.296Z,17.39
2023-03-06T07:41:22.769Z,17
2023-03-06T07:42:22.381Z,17.5
2023-03-06T07:43:22.393Z,17.60
2023-03-06T07:44:22.180Z,17.5
2023-03-06T07:45:23.204Z,17.70
2023-03-06T07:46:22.903Z,17.79
2023-03-06T07:47:22.368Z,17.10
2023-03-06T07:48:22.388Z,16.89
2023-03-06T07:49:41.937Z,18
2023-03-06T07:50:22.708Z,17.39
2023-03-06T07:52:22.561Z,17.79
2023-03-06T07:53:22.957Z,16.70
2023-03-06T07:54:22.477Z,17.10
2023-03-06T07:55:23.179Z,16.89
2023-03-06T07:56:23.499Z,18.5
2023-03-06T07:57:22.323Z,17.60
2023-03-06T07:58:22.728Z,18.29
2023-03-06T07:59:22.875Z,17.20
2023-03-06T08:00:24.081Z,17
2023-03-06T08:01:23.148Z,18.39
2023-03-06T08:02:22.693Z,17.89
2023-03-06T08:03:22.826Z,18.5
2023-03-06T08:04:22.388Z,17.5
2023-03-06T08:05:22.638Z,18.10
2023-03-06T08:06:22.448Z,17.79
2023-03-06T08:07:22.725Z,17.60
2023-03-06T08:08:27.917Z,18
2023-03-06T08:09:23.033Z,17.89
2023-03-06T08:10:23.629Z,17.5
2023-03-06T08:11:22.373Z,17.89
2023-03-06T08:12:22.673Z,16.79
2023-03-06T08:13:22.291Z,17.79
2023-03-06T08:14:22.719Z,17
2023-03-06T08:15:22.995Z,17.29
2023-03-06T08:16:22.499Z,18.10
2023-03-06T08:17:23.253Z,17.60
2023-03-06T08:18:22.707Z,18.89
2023-03-06T08:19:44.683Z,18.5
2023-03-06T08:20:22.626Z,19
2023-03-06T08:22:22.789Z,19.20
2023-03-06T08:23:21.726Z,19.79
2023-03-06T08:24:22.639Z,20.79
2023-03-06T08:26:22.101Z,20.70
2023-03-06T08:27:22.364Z,19.5
2023-03-06T08:28:22.208Z,20.10
2023-03-06T08:29:22.327Z,21.60
2023-03-06T08:30:22.458Z,21.20
2023-03-06T08:31:22.096Z,21.89
2023-03-06T08:32:22.717Z,21.29
2023-03-06T08:33:22.770Z,21
2023-03-06T08:34:22.459Z,20.60
2023-03-06T08:36:25.152Z,21
2023-03-06T08:38:22.368Z,20.60
2023-03-06T08:39:22.669Z,21.20
2023-03-06T08:40:22.952Z,21.70
2023-03-06T08:41:22.696Z,21.20
2023-03-06T08:42:22.990Z,21.79
2023-03-06T08:43:22.724Z,21.70
2023-03-06T08:44:22.405Z,21.20
2023-03-06T08:45:23.381Z,22.39
2023-03-06T08:46:22.424Z,21.60
2023-03-06T08:48:22.625Z,21.79
2023-03-06T08:49:22.811Z,22
2023-03-06T08:50:23.122Z,21
2023-03-06T08:51:22.546Z,22.20
2023-03-06T08:52:22.618Z,22.5
2023-03-06T08:53:30.546Z,21
2023-03-06T08:54:22.890Z,22
2023-03-06T08:55:23.028Z,22.10
2023-03-06T08:56:22.624Z,21.10
2023-03-06T08:57:22.902Z,21.79
2023-03-06T08:58:23.156Z,21
2023-03-06T08:59:23.477Z,22.20
2023-03-06T09:00:24.928Z,20.89
2023-03-06T09:01:23.912Z,21.20
2023-03-06T09:02:22.536Z,21.29
2023-03-06T09:03:22.529Z,21.10
2023-03-06T09:04:22.665Z,20.79
2023-03-06T09:05:22.334Z,21.70
2023-03-06T09:06:23.045Z,21.10
2023-03-06T09:07:22.914Z,21.39
2023-03-06T09:08:23.265Z,21.5
2023-03-06T09:09:22.448Z,21.60
2023-03-06T09:10:23.453Z,21.39
2023-03-06T09:11:22.724Z,21.20
2023-03-06T09:12:23.364Z,20.89
2023-03-06T09:13:22.446Z,21.60
2023-03-06T09:14:22.764Z,21
2023-03-06T09:15:23.403Z,20.60
2023-03-06T09:16:22.723Z,20.39
2023-03-06T09:17:22.360Z,19.89
2023-03-06T09:18:22.702Z,19.79
2023-03-06T09:19:22.061Z,19.89
2023-03-06T09:21:22.200Z,20.5
2023-03-06T09:22:22.173Z,20.10
2023-03-06T09:23:22.831Z,20.20
2023-03-06T09:24:22.650Z,20.29
2023-03-06T09:25:22.688Z,20.70
2023-03-06T09:26:27.992Z,19.79
2023-03-06T09:27:23.161Z,19.89
2023-03-06T09:28:23.163Z,20.5
2023-03-06T09:29:22.408Z,19.89
2023-03-06T09:30:23.173Z,18.5
2023-03-06T09:31:22.119Z,20.39
2023-03-06T09:32:22.814Z,20.10
2023-03-06T09:33:23.132Z,20.39
2023-03-06T09:34:22.088Z,19.60
2023-03-06T09:35:22.759Z,19.70
2023-03-06T09:36:22.425Z,20.5
2023-03-06T09:37:22.661Z,20
2023-03-06T09:38:22.544Z,20.5
2023-03-06T09:39:22.758Z,20.70
2023-03-06T09:40:22.982Z,19.10
2023-03-06T09:41:22.988Z,19.70
2023-03-06T09:42:22.971Z,19.20
2023-03-06T09:43:22.476Z,20
2023-03-06T09:44:22.428Z,18.89
2023-03-06T09:45:25.035Z,20.39
2023-03-06T09:46:22.247Z,20.10
2023-03-06T09:47:22.352Z,20.39
2023-03-06T09:48:22.090Z,20.79
2023-03-06T09:49:22.121Z,19.29
2023-03-06T09:50:22.947Z,19.39
2023-03-06T09:51:22.788Z,19.10
2023-03-06T09:52:23.122Z,19.89
2023-03-06T09:53:23.335Z,18.89
2023-03-06T09:54:22.600Z,19.5
2023-03-06T09:56:22.144Z,19.29
2023-03-06T09:57:22.550Z,19.10
2023-03-06T09:58:21.952Z,19.5
2023-03-06T09:59:22.670Z,19.39
2023-03-06T10:00:24.191Z,18.60
2023-03-06T10:01:22.653Z,17.70
2023-03-06T10:02:22.845Z,15.60
2023-03-06T10:04:22.600Z,16.39
2023-03-06T10:05:22.322Z,16
2023-03-06T10:06:22.344Z,15.5
2023-03-06T10:07:22.619Z,16.5
2023-03-06T10:08:27.750Z,15.39
2023-03-06T10:09:22.387Z,15.30
2023-03-06T10:10:22.750Z,15.19
2023-03-06T10:11:22.191Z,15.39
2023-03-06T10:12:24.672Z,15.60
2023-03-06T10:13:22.945Z,15.19
2023-03-06T10:15:22.807Z,13.80
2023-03-06T10:16:23.147Z,13.60
2023-03-06T10:17:22.740Z,13.80
2023-03-06T10:18:22.498Z,13.5
2023-03-06T10:19:22.193Z,13.30
2023-03-06T10:20:22.813Z,13.60
2023-03-06T10:21:22.317Z,14.39
2023-03-06T10:22:22.125Z,13.60
2023-03-06T10:23:22.184Z,13.19
2023-03-06T10:24:22.892Z,12.60
2023-03-06T10:25:22.677Z,12.30
2023-03-06T10:26:22.167Z,12.5
2023-03-06T10:27:22.209Z,13.69
2023-03-06T10:28:23.230Z,13.30
2023-03-06T10:29:22.346Z,13.60
2023-03-06T10:30:22.563Z,13.80
2023-03-06T10:31:21.846Z,14.10
2023-03-06T10:32:22.992Z,14.39
2023-03-06T10:33:22.392Z,14.60
2023-03-06T10:34:22.281Z,15.80
2023-03-06T10:36:22.871Z,15.60
2023-03-06T10:37:22.641Z,14.5
2023-03-06T10:38:22.704Z,14.60
2023-03-06T10:39:22.699Z,14.69
2023-03-06T10:40:22.914Z,15.30
2023-03-06T10:41:22.427Z,15.69
2023-03-06T10:42:23.613Z,17.39
2023-03-06T10:43:22.751Z,16.60
2023-03-06T10:44:23.355Z,16
2023-03-06T10:45:22.836Z,14.5
2023-03-06T10:46:23.061Z,14.19
2023-03-06T10:47:23.281Z,14.5
2023-03-06T10:48:22.875Z,14.30
2023-03-06T10:49:23.708Z,14.19
2023-03-06T10:50:24.804Z,14.5
2023-03-06T10:51:25.655Z,13.30
2023-03-06T10:52:24.857Z,12.89
2023-03-06T10:53:25.373Z,12.19
2023-03-06T10:54:24.927Z,12.5
2023-03-06T10:55:25.792Z,12.19
2023-03-06T10:56:24.845Z,11.39
2023-03-06T10:57:25.412Z,12.39
2023-03-06T10:58:25.373Z,12.10
2023-03-06T10:59:24.874Z,11.60
2023-03-06T11:00:26.705Z,10.60
2023-03-06T11:02:25.661Z,10.5
2023-03-06T11:03:26.636Z,10.10
2023-03-06T11:04:26.564Z,9.800
2023-03-06T11:05:26.652Z,8.699
2023-03-06T11:06:26.185Z,9.699
2023-03-06T11:09:33.447Z,9.600
2023-03-06T11:11:37.145Z,9.800
2023-03-06T11:13:23.301Z,9.399
2023-03-06T11:14:26.509Z,9.600
2023-03-06T11:15:25.495Z,8.800
2023-03-06T11:16:25.739Z,9
2023-03-06T11:17:24.476Z,8.899
2023-03-06T11:18:24.345Z,9.300
2023-03-06T11:19:24.875Z,8.899
2023-03-06T11:20:24.757Z,8.800
2023-03-06T11:21:24.420Z,9
2023-03-06T11:22:23.850Z,9.199
2023-03-06T11:24:24.019Z,9.399
2023-03-06T11:25:24.269Z,9.100
2023-03-06T11:26:23.349Z,9.199
2023-03-06T11:28:24.842Z,8.899
2023-03-06T11:29:25.380Z,9.199
2023-03-06T11:30:25.170Z,9.699
2023-03-06T11:31:24.706Z,9.399
2023-03-06T11:32:24.447Z,8.600
2023-03-06T11:33:24.722Z,9.300
2023-03-06T11:34:25.500Z,8.699
2023-03-06T11:35:23.881Z,9.100
2023-03-06T11:36:24.444Z,9.399
2023-03-06T11:37:23.861Z,9.199
2023-03-06T11:38:24.070Z,9.399
2023-03-06T11:40:23.145Z,9.600
2023-03-06T11:41:23.144Z,9.699
2023-03-06T11:42:24.095Z,9.5
2023-03-06T11:43:24.519Z,9.100
2023-03-06T11:44:24.812Z,9.899
2023-03-06T11:45:25.302Z,9.800
2023-03-06T11:46:24.237Z,9.199
2023-03-06T11:48:24.494Z,9.600
2023-03-06T11:50:24.661Z,9.399
2023-03-06T11:51:23.888Z,9.300
2023-03-06T11:52:24.830Z,10.60
2023-03-06T11:53:24.188Z,9.600
2023-03-06T11:54:23.905Z,10.10
2023-03-06T11:55:24.715Z,10.30
2023-03-06T11:56:24.160Z,10.10
2023-03-06T11:57:24.861Z,10.5
2023-03-06T11:58:24.611Z,10.30
2023-03-06T11:59:24.677Z,10.80
2023-03-06T12:00:25.938Z,10.19
2023-03-06T12:01:24.420Z,10.39
2023-03-06T12:02:24.473Z,11
2023-03-06T12:03:25.355Z,10.60
2023-03-06T12:04:23.076Z,10.69
2023-03-06T12:05:23.376Z,10.60
2023-03-06T12:06:23.363Z,11.30
2023-03-06T12:07:24.243Z,10.80
2023-03-06T12:08:25.006Z,11
2023-03-06T12:09:24.797Z,10.69
2023-03-06T12:10:24.259Z,10.80
2023-03-06T12:11:24.769Z,10.10
2023-03-06T12:12:24.227Z,9.899
2023-03-06T12:14:24.232Z,10.10
2023-03-06T12:16:24.431Z,10
2023-03-06T12:17:24.171Z,10.39
2023-03-06T12:18:25.117Z,10.60
2023-03-06T12:19:24.499Z,10.30
2023-03-06T12:20:25.396Z,9.899
2023-03-06T12:21:24.308Z,10.30
2023-03-06T12:22:24.659Z,9.699
2023-03-06T12:23:25.000Z,10.39
2023-03-06T12:24:24.791Z,9.600
2023-03-06T12:25:28.861Z,10.60
2023-03-06T12:26:23.724Z,9.699
2023-03-06T12:27:24.528Z,10.19
2023-03-06T12:28:23.709Z,10.10
2023-03-06T12:29:24.646Z,10.19
2023-03-06T12:30:24.810Z,10.30
2023-03-06T12:31:23.933Z,10
2023-03-06T12:32:24.210Z,9.899
2023-03-06T12:33:24.410Z,10.30
2023-03-06T12:34:24.574Z,10.80
2023-03-06T12:35:24.836Z,11.10
2023-03-06T12:36:25.572Z,10.5
2023-03-06T12:37:23.686Z,10.80
2023-03-06T12:38:23.900Z,10
2023-03-06T12:39:32.110Z,10.39
2023-03-06T12:41:23.535Z,9.399
2023-03-06T12:42:23.867Z,9.800
2023-03-06T12:43:24.024Z,10.10
2023-03-06T12:44:23.066Z,9
2023-03-06T12:45:25.075Z,9.800
2023-03-06T12:46:23.578Z,10
2023-03-06T12:48:23.827Z,9.800
2023-03-06T12:49:31.835Z,10.10
2023-03-06T12:50:24.984Z,9.800
2023-03-06T12:51:23.665Z,10.19
2023-03-06T12:52:30.286Z,9.600
2023-03-06T12:54:24.247Z,9.899
2023-03-06T12:55:25.795Z,9.600
2023-03-06T12:56:24.157Z,10
2023-03-06T12:57:24.426Z,9.800
2023-03-06T12:58:24.683Z,9.899
2023-03-06T12:59:24.757Z,9.600
2023-03-06T13:00:26.158Z,9.399
2023-03-06T13:01:43.142Z,8.899
2023-03-06T13:02:24.803Z,9.300
2023-03-06T13:03:25.245Z,9.199
2023-03-06T13:04:24.041Z,9.600
2023-03-06T13:05:43.357Z,9.800
2023-03-06T13:06:24.258Z,9.399
2023-03-06T13:07:24.188Z,10
2023-03-06T13:08:23.456Z,10.39
2023-03-06T13:09:23.827Z,10.60
2023-03-06T13:10:23.402Z,10
2023-03-06T13:12:24.178Z,11
2023-03-06T13:13:24.361Z,10.5
2023-03-06T13:14:24.658Z,11.30
2023-03-06T13:15:25.229Z,10.30
2023-03-06T13:16:24.782Z,10.60
2023-03-06T13:17:25.200Z,10.89
2023-03-06T13:18:24.112Z,11.10
2023-03-06T13:19:23.891Z,11.30
2023-03-06T13:20:23.891Z,10.5
2023-03-06T13:21:24.052Z,10.69
2023-03-06T13:22:24.259Z,9.800
2023-03-06T13:24:28.893Z,9.399
2023-03-06T13:25:24.759Z,9
2023-03-06T13:26:24.028Z,9.600
2023-03-06T13:27:24.632Z,10.19
2023-03-06T13:28:24.345Z,10
2023-03-06T13:29:23.940Z,10.19
2023-03-06T13:30:24.863Z,10.10
2023-03-06T13:32:29.183Z,9.899
2023-03-06T13:33:23.325Z,10.60
2023-03-06T13:34:23.000Z,10.39
2023-03-06T13:35:23.429Z,11.30
2023-03-06T13:36:24.339Z,10.89
2023-03-06T13:37:24.522Z,10.5
2023-03-06T13:38:24.457Z,10.80
2023-03-06T13:39:25.111Z,10.30
2023-03-06T13:40:24.387Z,11
2023-03-06T13:41:24.019Z,10.80
2023-03-06T13:44:24.161Z,11
2023-03-06T13:45:23.853Z,11.19
2023-03-06T13:46:24.289Z,10.89
2023-03-06T13:48:43.051Z,11
2023-03-06T13:49:25.077Z,12.30
2023-03-06T13:50:24.403Z,12.19
2023-03-06T13:51:25.032Z,11.30
2023-03-06T13:52:24.955Z,11
2023-03-06T13:53:25.254Z,10.60
2023-03-06T13:54:24.794Z,10.69
2023-03-06T13:55:24.263Z,10.60
2023-03-06T13:56:23.373Z,11.10
2023-03-06T13:57:23.938Z,10.69
2023-03-06T13:58:23.989Z,11.60
2023-03-06T13:59:23.810Z,11.10
2023-03-06T14:00:25.969Z,11.89
2023-03-06T14:01:24.960Z,11.39
2023-03-06T14:02:24.157Z,10.89
2023-03-06T14:03:24.259Z,10.5
2023-03-06T14:05:24.471Z,9.600
2023-03-06T14:06:24.451Z,10.30
2023-03-06T14:08:23.675Z,10.10
2023-03-06T14:09:23.697Z,10.5
2023-03-06T14:10:24.108Z,9.899
2023-03-06T14:11:24.806Z,10.5
2023-03-06T14:12:23.790Z,9.600
2023-03-06T14:14:28.464Z,9.5
2023-03-06T14:15:24.397Z,10
2023-03-06T14:16:24.815Z,9.800
2023-03-06T14:17:24.774Z,9.199
2023-03-06T14:18:25.776Z,9.600
2023-03-06T14:19:26.971Z,9